Peru, IL

6:46 PM CST on February 24, 2017 (GMT -0600)
Illinois Valley Regional-Duncan | | Change Station

Elev 653 ft 41.35 °N, 89.15 °W | Updated 11 minutes ago

Overcast
Overcast
37 °F
Feels Like 30 °F
N
10
Wind Variable Wind from West

Today
High -- | Low -- °F
--% Chance of Precip.
Yesterday
High -- | Low -- °F
Precip. -- in
Pressure 29.60 in
Visibility 7.0 miles
Clouds Overcast 1000 ft
Windchill 30 °F
Dew Point 36 °F
Humidity 93%
Rainfall 0.00 in
Snow Depth Not available.
6:38 AM 5:41 PM
Waning Crescent, 3% visible
METAR KVYS 250035Z AUTO 28009KT 7SM OVC010 03/02 A2960 RMK AO2 T00300020
Pressure 29.60 in
Visibility 7.0 miles
Clouds Overcast 1000 ft
Windchill 30 °F
Dew Point 36 °F
Humidity 93%
Rainfall 0.00 in
Snow Depth Not available.
6:38 AM 5:41 PM
Waning Crescent, 3% visible
METAR KVYS 250035Z AUTO 28009KT 7SM OVC010 03/02 A2960 RMK AO2 T00300020

Get Your Daily Forecast Email!

Thanks for signing up!

Be on the lookout for a verification email in your inbox.

You'll start receiving the daily forecast at 8 AM.

×

10-Day Weather Forecast

Almanac

Astronomy

Feb. 24, 2017 Rise Set
Actual Time
Civil Twilight
Nautical Twilight
Astronomical Twilight
Moon
Length of Visible Light
Length of Day
Tomorrow will be .
, % of the Moon is Illuminated

Today's Extremes

State Highs State Lows

Community

WunderPhotos

Upload Photos

1,962,540 photos uploaded!

WunderBlog® & News

Nearby

Air Quality

  Air Quality AQ Index Pollutant
Not available.

Snow Depth

Station Depth Elevation

Earthquake Activity

City Distance Mag. Time & Date
Minimum magnitude displayed is 2.5.

Coastal Water Temperatures

Place Temperature

Stations

Nearby Weather Stations

Station Location Temp. Windchill Dew Point Humidity Wind Precip. Elev Updated Type
                   

Watches & Warnings

There are currently no watches in effect.